Time;durP1;ratioP1;P1;durP2;ratioP2;P2;SDS_P1;SDS_P2;PMS_P1;PMS_P2;Temp;Humidity;BMP_temperature;BMP_pressure;BME280_temperature;BME280_humidity;BME280_pressure;Samples;Min_cycle;Max_cycle;Signal;HPM_P1;HPM_P2
2024/02/28 00:01:50;;;;;;;61.58;12.52;;;15.40;92.70;;;;;;5052417;28;20055;-68
2024/02/28 00:04:55;;;;;;;81.88;12.23;;;;;;;;;;5052736;28;20052;-68
2024/02/28 00:07:59;;;;;;;55.28;10.80;;;;;;;;;;5052311;28;20044;-68
2024/02/28 00:11:03;;;;;;;61.22;9.75;;;;;;;;;;5052327;28;20052;-68
2024/02/28 00:14:08;;;;;;;54.63;8.48;;;;;;;;;;5052241;28;20038;-68
2024/02/28 00:17:12;;;;;;;55.88;10.07;;;;;;;;;;5052154;28;20503;-68
2024/02/28 00:20:17;;;;;;;52.42;9.10;;;;;;;;;;5052552;28;20036;-68
2024/02/28 00:23:21;;;;;;;63.80;8.52;;;;;;;;;;5052484;28;20048;-68
2024/02/28 00:26:26;;;;;;;44.05;8.80;;;;;;;;;;5052501;28;20054;-68
2024/02/28 00:29:30;;;;;;;50.25;8.88;;;;;;;;;;5052438;28;20604;-68
2024/02/28 00:32:34;;;;;;;49.63;8.07;;;;;;;;;;5052233;28;20037;-68
2024/02/28 00:35:40;;;;;;;54.15;9.38;;;16.30;90.70;;;;;;5051423;28;20041;-68
2024/02/28 00:38:44;;;;;;;48.40;9.07;;;;;;;;;;5052145;28;20056;-68
2024/02/28 00:41:48;;;;;;;51.05;8.52;;;;;;;;;;5051864;28;20505;-68
2024/02/28 00:44:52;;;;;;;48.83;9.10;;;;;;;;;;5052131;28;20044;-68
2024/02/28 00:47:57;;;;;;;44.47;7.65;;;;;;;;;;5051995;28;20033;-68
2024/02/28 00:51:01;;;;;;;61.92;10.05;;;;;;;;;;5052222;28;20378;-68
2024/02/28 00:54:05;;;;;;;65.78;8.77;;;;;;;;;;5051769;28;20048;-68
2024/02/28 00:57:09;;;;;;;59.95;9.77;;;;;;;;;;5051850;28;20361;-68
2024/02/28 01:00:14;;;;;;;53.15;8.57;;;;;;;;;;5050531;28;20053;-68
2024/02/28 01:03:18;;;;;;;38.83;8.60;;;;;;;;;;5051645;28;20366;-68
2024/02/28 01:06:22;;;;;;;56.55;8.82;;;;;;;;;;5051674;28;20041;-68
2024/02/28 01:09:26;;;;;;;52.25;9.23;;;;;;;;;;5051552;28;20044;-68
2024/02/28 01:12:30;;;;;;;51.08;9.15;;;;;;;;;;5051567;28;20054;-68
2024/02/28 01:15:35;;;;;;;50.88;8.73;;;;;;;;;;5051628;28;20045;-68
2024/02/28 01:18:39;;;;;;;47.10;8.07;;;;;;;;;;5051103;28;20504;-68
2024/02/28 01:21:43;;;;;;;46.40;8.07;;;;;;;;;;5051307;28;20436;-68
2024/02/28 01:24:48;;;;;;;43.92;7.75;;;;;;;;;;5051037;28;20496;-68
2024/02/28 01:27:52;;;;;;;42.67;6.30;;;;;;;;;;5051238;28;20357;-68
2024/02/28 01:30:56;;;;;;;57.30;7.53;;;;;;;;;;5050848;28;20513;-68
2024/02/28 01:34:01;;;;;;;41.83;6.72;;;;;;;;;;5050247;28;20048;-69
2024/02/28 01:37:05;;;;;;;39.22;5.90;;;;;;;;;;5050899;28;20048;-68
2024/02/28 01:40:10;;;;;;;40.40;6.55;;;;;;;;;;5050914;28;20043;-68
2024/02/28 01:43:14;;;;;;;43.78;7.03;;;;;;;;;;5050876;28;20040;-68
2024/02/28 01:46:25;;;;;;;30.45;5.60;;;17.10;86.00;;;;;;5050976;28;20044;-68
2024/02/28 01:49:30;;;;;;;43.90;7.38;;;;;;;;;;5038873;28;20052;-68
2024/02/28 01:52:34;;;;;;;53.17;6.18;;;;;;;;;;5050976;28;20044;-68
2024/02/28 01:55:39;;;;;;;36.00;5.40;;;;;;;;;;5038859;28;20040;-68
2024/02/28 01:58:47;;;;;;;36.47;7.13;;;16.40;84.50;;;;;;5050764;28;20392;-68
2024/02/28 02:01:51;;;;;;;45.00;5.53;;;;;;;;;;5050863;28;20052;-68
2024/02/28 02:04:57;;;;;;;40.50;5.32;;;;;;;;;;5050997;28;20148;-68
2024/02/28 02:08:02;;;;;;;40.13;6.20;;;;;;;;;;5050714;28;20406;-68
2024/02/28 02:11:06;;;;;;;47.00;6.90;;;;;;;;;;5049764;28;20048;-68
2024/02/28 02:14:11;;;;;;;34.13;5.43;;;;;;;;;;5038478;28;20036;-68
2024/02/28 02:17:15;;;;;;;31.00;5.18;;;;;;;;;;5050667;28;20052;-67
2024/02/28 02:20:20;;;;;;;33.28;4.70;;;16.50;82.40;;;;;;5050744;28;20048;-68
2024/02/28 02:23:25;;;;;;;33.97;4.43;;;;;;;;;;5050324;28;20516;-68
2024/02/28 02:26:29;;;;;;;34.55;4.43;;;;;;;;;;5050733;28;20048;-68
2024/02/28 02:29:33;;;;;;;30.75;4.82;;;;;;;;;;5050694;28;20496;-68
2024/02/28 02:32:38;;;;;;;32.75;4.22;;;;;;;;;;5050335;28;20048;-68
2024/02/28 02:35:42;;;;;;;40.72;4.20;;;;;;;;;;5050400;28;20040;-68
2024/02/28 02:38:47;;;;;;;36.53;3.88;;;;;;;;;;5050669;28;20500;-68
2024/02/28 02:41:51;;;;;;;30.23;3.67;;;;;;;;;;5050469;28;20048;-68
2024/02/28 02:44:55;;;;;;;29.17;3.58;;;;;;;;;;5050340;28;20499;-67
2024/02/28 02:47:59;;;;;;;25.42;4.15;;;;;;;;;;5049578;28;20389;-69
2024/02/28 02:51:04;;;;;;;22.15;3.20;;;;;;;;;;5050231;28;20056;-68
2024/02/28 02:54:08;;;;;;;25.75;3.90;;;;;;;;;;5050392;28;20044;-69
2024/02/28 02:57:12;;;;;;;24.02;2.85;;;;;;;;;;5050354;28;20044;-70
2024/02/28 03:00:17;;;;;;;30.55;4.63;;;;;;;;;;5052775;28;20520;-69
2024/02/28 03:03:21;;;;;;;29.75;3.63;;;;;;;;;;5054477;28;20068;-69
2024/02/28 03:06:25;;;;;;;23.35;3.47;;;;;;;;;;5053954;28;20047;-69
2024/02/28 03:09:30;;;;;;;20.13;3.65;;;;;;;;;;5053939;28;20055;-69
2024/02/28 03:12:34;;;;;;;21.75;3.00;;;;;;;;;;5053691;28;20508;-69
2024/02/28 03:15:38;;;;;;;21.40;3.58;;;;;;;;;;5053858;28;20393;-69
2024/02/28 03:18:42;;;;;;;25.67;3.88;;;;;;;;;;5053442;28;20060;-69
2024/02/28 03:21:47;;;;;;;24.05;3.95;;;;;;;;;;5053337;28;20044;-69
2024/02/28 03:24:51;;;;;;;29.13;4.55;;;;;;;;;;5053678;28;20052;-69
2024/02/28 03:27:55;;;;;;;27.88;3.63;;;;;;;;;;5053673;28;20661;-69
2024/02/28 03:31:00;;;;;;;24.95;4.47;;;;;;;;;;5053324;28;20230;-69
2024/02/28 03:34:04;;;;;;;28.02;4.10;;;;;;;;;;5053588;28;20515;-69
2024/02/28 03:37:08;;;;;;;26.73;3.50;;;;;;;;;;5053190;28;20040;-69
2024/02/28 03:40:14;;;;;;;24.15;3.13;;;;;;;;;;5053385;28;20052;-69
2024/02/28 03:43:18;;;;;;;25.00;3.97;;;;;;;;;;5052432;28;20052;-69
2024/02/28 03:46:22;;;;;;;20.95;3.53;;;;;;;;;;5053300;28;20051;-69
2024/02/28 03:49:27;;;;;;;22.35;3.47;;;;;;;;;;5053163;28;20040;-69
2024/02/28 03:52:31;;;;;;;25.85;3.88;;;;;;;;;;5052771;28;20401;-69
2024/02/28 03:55:37;;;;;;;24.75;3.88;;;;;;;;;;5052879;28;20059;-69
2024/02/28 03:58:41;;;;;;;28.10;3.78;;;;;;;;;;5052905;28;20047;-69
2024/02/28 04:01:45;;;;;;;14.48;3.03;;;;;;;;;;5052530;28;20401;-69
2024/02/28 04:04:51;;;;;;;22.85;3.10;;;;;;;;;;5040318;28;20053;-69
2024/02/28 04:07:56;;;;;;;21.35;3.45;;;16.90;77.10;;;;;;5052739;28;20043;-69
2024/02/28 04:11:01;;;;;;;23.33;3.10;;;;;;;;;;5052627;28;20401;-69
2024/02/28 04:14:05;;;;;;;22.92;3.53;;;;;;;;;;5052637;28;20040;-69
2024/02/28 04:17:10;;;;;;;25.85;3.60;;;;;;;;;;5052519;28;20043;-69
2024/02/28 04:20:14;;;;;;;22.55;3.28;;;;;;;;;;5052673;28;20072;-69
2024/02/28 04:23:18;;;;;;;28.90;3.92;;;;;;;;;;5052484;28;20047;-69
2024/02/28 04:26:23;;;;;;;28.27;3.05;;;;;;;;;;5052478;28;20412;-69
2024/02/28 04:29:27;;;;;;;21.67;3.13;;;;;;;;;;5052462;28;20048;-69
2024/02/28 04:32:31;;;;;;;24.58;3.20;;;;;;;;;;5052133;28;20048;-69
2024/02/28 04:35:35;;;;;;;21.63;4.50;;;;;;;;;;5052030;28;20053;-69
2024/02/28 04:38:40;;;;;;;25.38;3.30;;;;;;;;;;5052060;28;20044;-69
2024/02/28 04:41:44;;;;;;;27.65;4.20;;;;;;;;;;5052089;28;20044;-69
2024/02/28 04:44:48;;;;;;;26.25;3.72;;;;;;;;;;5051820;28;20056;-69
2024/02/28 04:47:54;;;;;;;21.83;3.22;;;;;;;;;;5051744;28;20040;-69
2024/02/28 04:50:58;;;;;;;17.60;3.05;;;;;;;;;;5051916;28;20052;-69
2024/02/28 04:54:02;;;;;;;23.20;2.67;;;;;;;;;;5052024;28;20155;-69
2024/02/28 04:57:07;;;;;;;24.85;3.47;;;;;;;;;;5051628;28;20044;-69
2024/02/28 05:00:12;;;;;;;25.95;3.55;;;;;;;;;;5051551;28;20059;-69
2024/02/28 05:03:16;;;;;;;24.23;3.55;;;;;;;;;;5051633;28;20048;-69
2024/02/28 05:06:20;;;;;;;21.92;4.10;;;;;;;;;;5051590;28;20519;-69
2024/02/28 05:09:24;;;;;;;28.92;3.83;;;;;;;;;;5051480;28;20380;-69
2024/02/28 05:12:28;;;;;;;24.67;3.60;;;;;;;;;;5050499;28;20048;-69
2024/02/28 05:15:33;;;;;;;23.25;3.95;;;;;;;;;;5051141;28;20044;-69
2024/02/28 05:18:37;;;;;;;26.05;3.97;;;;;;;;;;5051352;28;20042;-69
2024/02/28 05:21:42;;;;;;;22.23;3.78;;;;;;;;;;5050920;28;20044;-69
2024/02/28 05:24:49;;;;;;;24.33;3.25;;;16.40;78.80;;;;;;5050729;28;20044;-69
2024/02/28 05:27:53;;;;;;;35.30;3.10;;;;;;;;;;5051363;28;20044;-69
2024/02/28 05:30:57;;;;;;;35.42;4.15;;;;;;;;;;5051015;28;20527;-69
2024/02/28 05:34:02;;;;;;;22.73;3.08;;;;;;;;;;5051641;28;20040;-69
2024/02/28 05:37:06;;;;;;;15.07;3.60;;;;;;;;;;5051733;28;20051;-69
2024/02/28 05:40:12;;;;;;;14.65;3.40;;;;;;;;;;5051323;28;20044;-69
2024/02/28 05:43:16;;;;;;;19.02;3.10;;;;;;;;;;5051174;28;20507;-69
2024/02/28 05:46:22;;;;;;;22.33;3.72;;;;;;;;;;5051737;28;20384;-69
2024/02/28 05:49:27;;;;;;;16.70;3.92;;;16.70;77.80;;;;;;5051104;28;20044;-69
2024/02/28 05:52:32;;;;;;;20.63;3.17;;;;;;;;;;5051236;28;20060;-69
2024/02/28 05:55:37;;;;;;;25.50;3.03;;;;;;;;;;5051473;28;20059;-69
2024/02/28 05:58:41;;;;;;;16.98;3.70;;;;;;;;;;5050038;28;20409;-69
2024/02/28 06:01:46;;;;;;;27.15;3.78;;;;;;;;;;5050326;28;20053;-69
2024/02/28 06:04:50;;;;;;;17.52;2.65;;;;;;;;;;5049999;28;20400;-69
2024/02/28 06:07:54;;;;;;;21.15;2.42;;;;;;;;;;5051291;28;20056;-69
2024/02/28 06:10:59;;;;;;;21.42;2.70;;;;;;;;;;5050815;28;20064;-68
2024/02/28 06:14:04;;;;;;;26.60;2.95;;;;;;;;;;5051032;28;20048;-68
2024/02/28 06:17:08;;;;;;;16.88;3.88;;;;;;;;;;5051343;28;20461;-68
2024/02/28 06:20:16;;;;;;;27.23;5.00;;;16.30;77.20;;;;;;5051436;28;20381;-68
2024/02/28 06:23:20;;;;;;;26.85;4.60;;;;;;;;;;5050489;28;20052;-69
2024/02/28 06:26:24;;;;;;;23.08;4.68;;;;;;;;;;5051079;28;20100;-70
2024/02/28 06:29:29;;;;;;;29.50;4.28;;;;;;;;;;5051110;28;20048;-70
2024/02/28 06:32:33;;;;;;;20.25;4.03;;;;;;;;;;5050457;28;20044;-68
2024/02/28 06:35:38;;;;;;;14.30;2.85;;;;;;;;;;5054475;28;20040;-70
2024/02/28 06:38:42;;;;;;;19.67;3.42;;;;;;;;;;5054474;28;20044;-70
2024/02/28 06:41:49;;;;;;;19.27;3.30;;;;;;;;;;5054708;28;20048;-68
2024/02/28 06:44:53;;;;;;;20.83;3.35;;;;;;;;;;5054199;28;20040;-68
2024/02/28 06:47:58;;;;;;;29.48;3.85;;;;;;;;;;5053674;28;20044;-68
2024/02/28 06:51:02;;;;;;;22.20;3.53;;;;;;;;;;5054576;28;20430;-69
2024/02/28 06:54:07;;;;;;;51.45;5.72;;;;;;;;;;5053869;28;20048;-69
2024/02/28 06:57:12;;;;;;;36.58;3.80;;;;;;;;;;5054262;28;20048;-68
2024/02/28 07:00:18;;;;;;;27.98;3.45;;;;;;;;;;5053747;28;20052;-69
2024/02/28 07:03:23;;;;;;;42.65;4.13;;;;;;;;;;5054162;28;20167;-70
2024/02/28 07:06:27;;;;;;;32.50;4.03;;;;;;;;;;5054017;28;20041;-69
2024/02/28 07:09:32;;;;;;;32.83;4.72;;;;;;;;;;5053881;28;20549;-69
2024/02/28 07:12:36;;;;;;;43.45;4.95;;;;;;;;;;5053685;28;20067;-68
2024/02/28 07:15:41;;;;;;;54.30;6.47;;;;;;;;;;5052926;28;20044;-69
2024/02/28 07:18:46;;;;;;;24.83;4.43;;;;;;;;;;5053152;28;20436;-67
2024/02/28 07:21:50;;;;;;;33.95;4.43;;;;;;;;;;5054394;28;20047;-69
2024/02/28 07:24:54;;;;;;;82.82;12.20;;;;;;;;;;5053969;28;20042;-68
2024/02/28 07:28:02;;;;;;;39.63;4.28;;;16.70;79.80;;;;;;5042146;28;20457;-68
2024/02/28 07:31:06;;;;;;;37.40;5.03;;;;;;;;;;5053482;28;20048;-68
2024/02/28 07:34:11;;;;;;;34.42;5.25;;;;;;;;;;5052693;28;20044;-68
2024/02/28 07:37:15;;;;;;;40.80;4.93;;;;;;;;;;5053751;28;20526;-68
2024/02/28 07:40:20;;;;;;;31.35;4.75;;;;;;;;;;5053576;28;20044;-68
2024/02/28 07:43:24;;;;;;;46.55;6.55;;;;;;;;;;5053393;28;20381;-69
2024/02/28 07:46:28;;;;;;;21.50;5.45;;;;;;;;;;5052658;28;20040;-68
2024/02/28 07:49:32;;;;;;;39.55;5.38;;;;;;;;;;5053288;28;20044;-68
2024/02/28 07:52:37;;;;;;;23.83;4.47;;;;;;;;;;5053204;28;20061;-68
2024/02/28 07:55:41;;;;;;;16.85;3.30;;;;;;;;;;5052880;28;20048;-68
2024/02/28 07:58:46;;;;;;;15.65;3.78;;;;;;;;;;5053277;28;20056;-68
2024/02/28 08:01:50;;;;;;;17.88;3.88;;;;;;;;;;5052293;28;20068;-66
2024/02/28 08:04:54;;;;;;;10.00;3.13;;;;;;;;;;5052825;28;20389;-67
2024/02/28 08:07:59;;;;;;;16.77;3.00;;;;;;;;;;5051947;28;20044;-68
2024/02/28 08:11:04;;;;;;;11.23;3.10;;;;;;;;;;5052295;28;20404;-68
2024/02/28 08:14:08;;;;;;;11.02;2.63;;;;;;;;;;5052739;28;20044;-68
2024/02/28 08:17:13;;;;;;;20.88;4.25;;;;;;;;;;5052999;28;20051;-68
2024/02/28 08:20:19;;;;;;;26.17;4.68;;;17.50;79.70;;;;;;5051692;28;20040;-67
2024/02/28 08:23:26;;;;;;;35.33;7.13;;;;;;;;;;5052615;28;20075;-67
2024/02/28 08:26:31;;;;;;;27.58;6.10;;;;;;;;;;5052412;28;20508;-68
2024/02/28 08:29:35;;;;;;;27.20;6.05;;;;;;;;;;5052336;28;20044;-69
2024/02/28 08:32:41;;;;;;;29.05;6.00;;;17.60;82.40;;;;;;5052182;28;20527;-69
2024/02/28 08:35:46;;;;;;;24.63;4.90;;;;;;;;;;5052538;28;20135;-68
2024/02/28 08:38:51;;;;;;;15.93;3.97;;;;;;;;;;5051248;28;20389;-68
2024/02/28 08:41:55;;;;;;;20.05;5.47;;;;;;;;;;5052672;28;20044;-68
2024/02/28 08:45:00;;;;;;;16.75;4.15;;;17.90;82.70;;;;;;5051867;28;20048;-67
2024/02/28 08:48:05;;;;;;;16.88;4.40;;;;;;;;;;5052341;28;20039;-67
2024/02/28 08:51:09;;;;;;;17.30;5.22;;;;;;;;;;5052245;28;20052;-71
2024/02/28 08:54:13;;;;;;;31.48;7.32;;;;;;;;;;5052291;28;20397;-72
2024/02/28 08:57:18;;;;;;;22.70;4.97;;;;;;;;;;5051225;28;20067;-69
2024/02/28 09:00:21;;;;;;;14.45;4.20;;;;;;;;;;5052633;28;20139;-69
2024/02/28 09:03:26;;;;;;;19.50;4.88;;;;;;;;;;5050808;28;20047;-69
2024/02/28 09:06:30;;;;;;;16.02;4.47;;;;;;;;;;5049187;28;20048;-70
2024/02/28 09:09:37;;;;;;;9.63;3.78;;;;;;;;;;5051573;28;20044;-70
2024/02/28 09:12:42;;;;;;;17.25;4.53;;;;;;;;;;5051278;28;20666;-69
2024/02/28 09:15:46;;;;;;;29.35;6.72;;;;;;;;;;5051674;28;20036;-69
2024/02/28 09:18:50;;;;;;;40.08;6.30;;;;;;;;;;5051307;28;20598;-69
2024/02/28 09:21:55;;;;;;;21.95;5.05;;;;;;;;;;5051301;28;20393;-69
2024/02/28 09:25:18;;;;;;;25.10;4.35;;;18.50;80.30;;;;;;5051583;28;20040;-69
2024/02/28 09:28:22;;;;;;;25.77;5.75;;;;;;;;;;5051582;28;20060;-69
2024/02/28 09:31:26;;;;;;;13.57;4.55;;;;;;;;;;5051397;28;20060;-69
2024/02/28 09:34:31;;;;;;;28.25;6.03;;;;;;;;;;5039667;28;20377;-69
2024/02/28 09:37:37;;;;;;;29.88;5.63;;;18.60;78.90;;;;;;5051325;28;20506;-69
2024/02/28 09:40:42;;;;;;;18.90;4.22;;;18.90;79.10;;;;;;5051494;28;20397;-69
2024/02/28 09:43:48;;;;;;;15.07;3.60;;;16.30;77.80;;;;;;5051489;28;20043;-68
2024/02/28 09:46:52;;;;;;;20.75;5.55;;;;;;;;;;5051473;28;20421;-68
2024/02/28 09:50:01;;;;;;;22.15;6.63;;;18.90;78.10;;;;;;5051163;28;20052;-68
2024/02/28 09:53:05;;;;;;;32.33;7.55;;;;;;;;;;5050560;28;20064;-68
2024/02/28 09:56:10;;;;;;;21.88;6.53;;;;;;;;;;5051627;28;20043;-67
2024/02/28 09:59:14;;;;;;;22.73;5.95;;;;;;;;;;5050725;28;20681;-69
2024/02/28 10:02:20;;;;;;;25.17;6.68;;;;;;;;;;5049018;28;20048;-68
2024/02/28 10:05:26;;;;;;;23.85;6.68;;;;;;;;;;5050833;28;20040;-67
2024/02/28 10:08:31;;;;;;;25.55;6.40;;;;;;;;;;5052866;28;20040;-67
2024/02/28 10:11:35;;;;;;;29.85;6.43;;;;;;;;;;5054195;28;20052;-68
2024/02/28 10:14:40;;;;;;;30.17;7.03;;;;;;;;;;5054792;28;20048;-68
2024/02/28 10:17:44;;;;;;;27.65;6.50;;;;;;;;;;5055897;28;20052;-68
2024/02/28 10:20:49;;;;;;;36.72;7.80;;;;;;;;;;5055068;28;20040;-69
2024/02/28 10:23:53;;;;;;;31.95;7.60;;;;;;;;;;5054063;28;20056;-69
2024/02/28 10:27:01;;;;;;;27.23;7.43;;;19.30;75.70;;;;;;5054851;28;20116;-67
2024/02/28 10:30:06;;;;;;;36.10;7.28;;;18.50;75.70;;;;;;5053814;28;20040;-69
2024/02/28 10:33:14;;;;;;;37.92;7.90;;;18.80;75.70;;;;;;5055008;28;20607;-68
2024/02/28 10:36:19;;;;;;;23.73;6.70;;;;;;;;;;5054639;28;20044;-66
2024/02/28 10:39:24;;;;;;;32.60;7.03;;;;;;;;;;5053511;28;20044;-68
2024/02/28 10:42:30;;;;;;;38.15;6.65;;;;;;;;;;5051462;28;20040;-68
2024/02/28 10:45:36;;;;;;;45.65;7.60;;;;;;;;;;5053071;28;20044;-68
2024/02/28 10:48:40;;;;;;;47.95;8.23;;;;;;;;;;5053346;28;20100;-68
2024/02/28 10:51:48;;;;;;;46.65;7.22;;;17.50;76.70;;;;;;5053074;28;20064;-66
2024/02/28 10:54:56;;;;;;;30.23;7.05;;;18.60;78.40;;;;;;5053966;28;20044;-68
2024/02/28 10:58:07;;;;;;;29.80;5.90;;;18.80;77.50;;;;;;5053108;28;20048;-68
2024/02/28 11:01:12;;;;;;;;;;;17.10;77.60;;;;;;5054159;28;20404;-69
2024/02/28 11:04:20;;;;;;;38.97;6.97;;;16.70;76.00;;;;;;5053854;28;19912;-69
2024/02/28 11:07:24;;;;;;;31.08;6.40;;;17.80;77.90;;;;;;5053914;28;20388;-67
2024/02/28 11:10:35;;;;;;;31.70;6.63;;;18.50;79.10;;;;;;5053673;28;20056;-70
2024/02/28 11:13:40;;;;;;;42.53;7.57;;;;;;;;;;5053668;28;20397;-69
2024/02/28 11:16:46;;;;;;;48.28;7.93;;;;;;;;;;5053510;28;20277;-69
2024/02/28 11:19:51;;;;;;;36.20;7.80;;;;;;;;;;5053060;28;20081;-69
2024/02/28 11:22:57;;;;;;;41.97;8.82;;;;;;;;;;5053102;28;20048;-70
2024/02/28 11:26:03;;;;;;;51.45;7.60;;;;;;;;;;5053682;28;20043;-67
2024/02/28 11:29:08;;;;;;;47.58;9.48;;;;;;;;;;5053098;28;20052;-68
2024/02/28 11:32:13;;;;;;;46.60;7.80;;;;;;;;;;5052408;28;20056;-69
2024/02/28 11:35:17;;;;;;;40.35;6.82;;;;;;;;;;5053587;28;20405;-68
2024/02/28 11:38:22;;;;;;;31.90;7.25;;;;;;;;;;5053356;28;20052;-67
2024/02/28 11:41:28;;;;;;;48.90;7.28;;;18.50;86.00;;;;;;5052608;28;20056;-68
2024/02/28 11:44:33;;;;;;;36.55;6.85;;;;;;;;;;5053203;28;20044;-68
2024/02/28 11:47:38;;;;;;;57.92;8.00;;;;;;;;;;5053739;28;20048;-69
2024/02/28 11:50:42;;;;;;;50.00;7.10;;;;;;;;;;5053181;28;20040;-70
2024/02/28 11:53:46;;;;;;;46.55;7.07;;;;;;;;;;5053215;28;20072;-71
2024/02/28 11:56:51;;;;;;;54.63;6.40;;;;;;;;;;5053394;28;20040;-70
2024/02/28 11:59:55;;;;;;;51.72;6.72;;;;;;;;;;5053397;28;20052;-69
2024/02/28 12:03:06;;;;;;;44.15;5.80;;;18.80;87.00;;;;;;5052731;28;20042;-70
2024/02/28 12:06:12;;;;;;;43.20;6.50;;;;;;;;;;5053138;28;20036;-69
2024/02/28 12:09:16;;;;;;;45.10;6.13;;;;;;;;;;5051884;28;20076;-67
2024/02/28 12:12:20;;;;;;;39.65;5.97;;;;;;;;;;5051339;28;20056;-68
2024/02/28 12:15:24;;;;;;;33.78;5.07;;;;;;;;;;5052445;28;20040;-68
2024/02/28 12:18:29;;;;;;;33.90;5.32;;;;;;;;;;5052716;28;20040;-67
2024/02/28 12:21:33;;;;;;;36.15;5.15;;;;;;;;;;5052450;28;20044;-69
2024/02/28 12:24:37;;;;;;;35.35;5.50;;;;;;;;;;5052752;28;20043;-69
2024/02/28 12:27:41;;;;;;;24.30;4.57;;;;;;;;;;5052782;28;20044;-68
2024/02/28 12:30:46;;;;;;;25.38;3.92;;;;;;;;;;5051994;28;20248;-69
2024/02/28 12:33:50;;;;;;;20.65;3.60;;;;;;;;;;5052460;28;20055;-68
2024/02/28 12:36:55;;;;;;;26.60;4.00;;;;;;;;;;5052143;28;20044;-67
2024/02/28 12:39:59;;;;;;;27.20;4.28;;;;;;;;;;5052015;28;20048;-69
2024/02/28 12:43:04;;;;;;;26.55;4.85;;;;;;;;;;5052198;28;20485;-68
2024/02/28 12:46:08;;;;;;;27.70;4.47;;;;;;;;;;5052233;28;20119;-68
2024/02/28 12:49:13;;;;;;;29.55;4.30;;;;;;;;;;5052954;28;20068;-67
2024/02/28 12:52:17;;;;;;;21.92;4.00;;;;;;;;;;5051638;28;20060;-68
2024/02/28 12:55:21;;;;;;;17.35;4.45;;;;;;;;;;5052198;28;20385;-69
2024/02/28 12:58:25;;;;;;;20.48;4.32;;;;;;;;;;5052037;28;20047;-70
2024/02/28 13:01:30;;;;;;;20.17;3.78;;;;;;;;;;5052190;28;20052;-69
2024/02/28 13:04:34;;;;;;;25.63;3.90;;;;;;;;;;5051873;28;20040;-69
2024/02/28 13:07:38;;;;;;;24.90;5.43;;;;;;;;;;5050909;28;20048;-69
2024/02/28 13:10:43;;;;;;;19.70;4.13;;;;;;;;;;5051575;28;20048;-68
2024/02/28 13:13:49;;;;;;;14.48;3.55;;;20.10;83.50;;;;;;5051087;28;20056;-68
2024/02/28 13:16:54;;;;;;;18.98;4.22;;;;;;;;;;5051492;28;20040;-69
2024/02/28 13:19:58;;;;;;;21.75;3.90;;;;;;;;;;5051033;28;20048;-69
2024/02/28 13:23:03;;;;;;;14.40;3.08;;;;;;;;;;5051564;28;20389;-69
2024/02/28 13:26:17;;;;;;;19.90;3.75;;;;;;;;;;5051250;28;20499;-69
2024/02/28 13:29:21;;;;;;;17.85;3.42;;;;;;;;;;5051438;28;20621;-68
2024/02/28 13:32:26;;;;;;;14.38;3.15;;;;;;;;;;5051239;28;20052;-70
2024/02/28 13:35:30;;;;;;;23.88;3.55;;;;;;;;;;5050654;28;20040;-68
2024/02/28 13:38:34;;;;;;;18.65;3.50;;;;;;;;;;5051012;28;20050;-67
2024/02/28 13:41:39;;;;;;;15.98;3.00;;;20.00;81.40;;;;;;5050559;28;20048;-67
2024/02/28 13:44:43;;;;;;;20.05;3.35;;;;;;;;;;5051216;28;20048;-68
2024/02/28 13:47:48;;;;;;;17.05;3.33;;;;;;;;;;5050810;28;20649;-70
2024/02/28 13:50:52;;;;;;;17.15;3.13;;;;;;;;;;5051239;28;20056;-68
2024/02/28 13:53:56;;;;;;;16.67;3.05;;;;;;;;;;5051250;28;20052;-68
2024/02/28 13:57:01;;;;;;;13.05;2.70;;;;;;;;;;5051390;28;20202;-69
2024/02/28 14:00:08;;;;;;;9.57;2.88;;;;;;;;;;5050655;28;20056;-69
2024/02/28 14:03:15;;;;;;;17.25;3.55;;;;;;;;;;5051411;28;20041;-70
2024/02/28 14:06:19;;;;;;;17.85;2.60;;;;;;;;;;5051002;28;20508;-70
2024/02/28 14:09:23;;;;;;;15.40;3.05;;;;;;;;;;5051149;28;20048;-73
2024/02/28 14:12:28;;;;;;;26.13;3.17;;;;;;;;;;5050505;28;20060;-70
2024/02/28 14:15:32;;;;;;;10.30;2.95;;;;;;;;;;5051643;28;20052;-70
2024/02/28 14:18:37;;;;;;;15.80;2.75;;;;;;;;;;5051415;28;20052;-70
2024/02/28 14:21:42;;;;;;;19.35;3.15;;;;;;;;;;5051211;28;20052;-69
2024/02/28 14:24:46;;;;;;;16.08;2.85;;;;;;;;;;5051010;28;20067;-70
2024/02/28 14:27:50;;;;;;;10.93;2.97;;;;;;;;;;5051077;28;20428;-71
2024/02/28 14:30:55;;;;;;;14.63;2.70;;;;;;;;;;5050463;28;20496;-68
2024/02/28 14:34:00;;;;;;;10.38;2.53;;;;;;;;;;5050665;28;20044;-69
2024/02/28 14:37:04;;;;;;;14.73;3.58;;;;;;;;;;5050586;28;20048;-68
2024/02/28 14:40:13;;;;;;;15.57;3.20;;;;;;;;;;5049206;28;20063;-67
2024/02/28 14:43:17;;;;;;;15.73;3.47;;;;;;;;;;5050049;28;20040;-69
2024/02/28 14:46:22;;;;;;;14.18;2.60;;;;;;;;;;5051144;28;20056;-69
2024/02/28 14:49:26;;;;;;;15.70;3.40;;;;;;;;;;5050785;28;20048;-70
2024/02/28 14:52:30;;;;;;;13.65;3.20;;;;;;;;;;5050106;28;20052;-69
2024/02/28 14:55:35;;;;;;;14.35;3.20;;;;;;;;;;5052543;28;20381;-69
2024/02/28 14:58:39;;;;;;;16.70;3.78;;;;;;;;;;5054924;28;20051;-70
2024/02/28 15:01:44;;;;;;;15.50;3.42;;;;;;;;;;5054045;28;20047;-69
2024/02/28 15:04:49;;;;;;;14.98;3.20;;;;;;;;;;5054507;28;20044;-69
2024/02/28 15:07:54;;;;;;;18.13;3.50;;;;;;;;;;5054581;28;20048;-68
2024/02/28 15:10:58;;;;;;;14.57;3.00;;;;;;;;;;5054677;28;20036;-73
2024/02/28 15:14:03;;;;;;;15.77;3.70;;;;;;;;;;5058528;28;20043;-76
2024/02/28 15:17:07;;;;;;;20.42;3.30;;;;;;;;;;5057090;28;20044;-73
2024/02/28 15:20:12;;;;;;;15.68;2.97;;;;;;;;;;5057020;28;20048;-77
2024/02/28 15:23:16;;;;;;;12.75;2.63;;;;;;;;;;5057821;28;20056;-78
2024/02/28 15:26:20;;;;;;;15.13;2.65;;;;;;;;;;5053604;28;20048;-71
2024/02/28 15:29:27;;;;;;;11.45;2.30;;;;;;;;;;5053685;28;20044;-72
2024/02/28 15:32:32;;;;;;;14.38;3.03;;;;;;;;;;5053327;28;20056;-70
2024/02/28 15:35:36;;;;;;;10.45;2.85;;;;;;;;;;5053658;28;20056;-72
2024/02/28 15:38:41;;;;;;;14.63;3.65;;;;;;;;;;5054907;28;20048;-76
2024/02/28 15:41:45;;;;;;;10.95;3.13;;;;;;;;;;5055715;28;20040;-77
2024/02/28 15:44:50;;;;;;;18.02;3.75;;;;;;;;;;5056572;28;20046;-77
2024/02/28 15:47:54;;;;;;;14.93;3.03;;;;;;;;;;5056650;28;20052;-75
2024/02/28 15:50:58;;;;;;;20.83;2.58;;;;;;;;;;5056736;28;20048;-77
2024/02/28 15:54:03;;;;;;;9.88;2.42;;;19.50;83.80;;;;;;5056086;28;20061;-79
2024/02/28 15:57:08;;;;;;;10.82;2.90;;;;;;;;;;5056177;28;20043;-76
2024/02/28 16:00:12;;;;;;;17.25;3.20;;;;;;;;;;5056577;28;20064;-76
2024/02/28 16:03:18;;;;;;;12.25;3.05;;;;;;;;;;5058738;28;20122;-76
2024/02/28 16:06:25;;;;;;;12.85;2.92;;;;;;;;;;5055716;28;20044;-75
2024/02/28 16:09:29;;;;;;;11.77;2.88;;;19.00;84.40;;;;;;5058492;28;20040;-76
2024/02/28 16:12:33;;;;;;;20.88;3.80;;;;;;;;;;5056346;28;20055;-77
2024/02/28 16:15:38;;;;;;;16.38;3.10;;;;;;;;;;5057285;28;20039;-77
2024/02/28 16:18:42;;;;;;;15.98;3.38;;;;;;;;;;5057503;28;20043;-76
2024/02/28 16:21:49;;;;;;;21.38;5.57;;;;;;;;;;5054771;28;20051;-79
2024/02/28 16:24:53;;;;;;;14.82;3.10;;;;;;;;;;5053372;28;20381;-76
2024/02/28 16:27:57;;;;;;;19.98;5.93;;;;;;;;;;5054185;28;20064;-75
2024/02/28 16:31:02;;;;;;;23.17;3.88;;;;;;;;;;5054464;28;20048;-76
2024/02/28 16:34:06;;;;;;;19.95;6.15;;;;;;;;;;5052925;28;20060;-69
2024/02/28 16:37:10;;;;;;;16.45;3.88;;;;;;;;;;5051910;28;20060;-68
2024/02/28 16:40:15;;;;;;;21.90;7.50;;;;;;;;;;5051873;28;20044;-70
2024/02/28 16:43:19;;;;;;;20.45;4.20;;;;;;;;;;5051894;28;20040;-69
2024/02/28 16:46:24;;;;;;;23.88;4.95;;;;;;;;;;5051108;28;20051;-68
2024/02/28 16:49:28;;;;;;;18.25;3.70;;;;;;;;;;5051843;28;20680;-67
2024/02/28 16:52:32;;;;;;;21.10;4.28;;;;;;;;;;5051619;28;20158;-69
2024/02/28 16:55:37;;;;;;;21.88;4.75;;;;;;;;;;5051819;28;20048;-68
2024/02/28 16:58:42;;;;;;;21.67;4.57;;;;;;;;;;5051688;28;20048;-68
2024/02/28 17:01:48;;;;;;;24.25;4.40;;;;;;;;;;5050710;28;20533;-68
2024/02/28 17:04:52;;;;;;;22.55;4.32;;;;;;;;;;5051183;28;20040;-69
2024/02/28 17:07:56;;;;;;;28.83;4.22;;;;;;;;;;5050083;28;20056;-70
2024/02/28 17:11:02;;;;;;;17.02;3.47;;;18.50;84.50;;;;;;5051064;28;20043;-70
2024/02/28 17:14:06;;;;;;;17.35;3.95;;;;;;;;;;5051376;28;20531;-72
2024/02/28 17:17:12;;;;;;;21.42;3.72;;;;;;;;;;5050962;28;20044;-73
2024/02/28 17:20:18;;;;;;;22.27;5.68;;;;;;;;;;5050606;28;20401;-72
2024/02/28 17:23:24;;;;;;;28.85;4.45;;;;;;;;;;5051389;28;20519;-71
2024/02/28 17:26:29;;;;;;;33.58;6.15;;;;;;;;;;5050820;28;20047;-69
2024/02/28 17:29:35;;;;;;;39.15;6.25;;;;;;;;;;5051081;28;20040;-71
2024/02/28 17:32:39;;;;;;;39.97;6.97;;;;;;;;;;5050894;28;20051;-70
2024/02/28 17:35:44;;;;;;;29.70;6.50;;;;;;;;;;5051186;28;20076;-72
2024/02/28 17:38:48;;;;;;;35.50;7.63;;;;;;;;;;5050901;28;20048;-69
2024/02/28 17:41:53;;;;;;;34.17;7.00;;;;;;;;;;5050610;28;20040;-71
2024/02/28 17:44:58;;;;;;;37.92;6.82;;;;;;;;;;5051105;28;20076;-72
2024/02/28 17:48:06;;;;;;;36.13;7.43;;;;;;;;;;5051007;28;20052;-70
2024/02/28 17:51:10;;;;;;;33.35;6.25;;;;;;;;;;5050877;28;20396;-71
2024/02/28 17:54:14;;;;;;;38.10;5.85;;;;;;;;;;5050773;28;20067;-71